createdAt,value
2017-09-27T05:09:27.124Z,9.60
2017-09-27T06:13:07.882Z,13.80
2017-09-27T06:15:35.503Z,14.80
2017-09-27T06:18:03.431Z,15.50
2017-09-27T06:20:31.030Z,15.90
2017-09-27T06:22:58.641Z,16.00
2017-09-27T06:25:26.176Z,15.90
2017-09-27T06:28:00.843Z,15.60
2017-09-27T06:30:28.432Z,15.30
2017-09-27T06:32:55.975Z,15.10
2017-09-27T06:35:23.684Z,15.00
2017-09-27T06:37:51.243Z,15.00
2017-09-27T06:40:19.645Z,15.20
2017-09-27T06:42:47.227Z,15.10
2017-09-27T06:45:14.737Z,15.40
2017-09-27T06:47:42.342Z,15.70
2017-09-27T06:50:09.958Z,15.70
2017-09-27T06:52:37.430Z,15.70
2017-09-27T06:55:05.681Z,16.30
2017-09-27T06:57:33.182Z,16.20
2017-09-27T07:00:01.437Z,16.70
2017-09-27T07:02:28.922Z,16.60
2017-09-27T07:04:56.386Z,16.90
2017-09-27T07:07:23.893Z,17.10
2017-09-27T07:09:51.374Z,17.20
2017-09-27T07:12:19.615Z,17.40
2017-09-27T07:14:47.108Z,17.40
2017-09-27T07:17:15.378Z,17.30
2017-09-27T07:19:43.704Z,17.30
2017-09-27T07:22:11.235Z,17.20
2017-09-27T07:24:38.766Z,17.10
2017-09-27T07:27:06.256Z,16.90
2017-09-27T07:29:33.784Z,16.80
2017-09-27T07:32:01.388Z,16.80
2017-09-27T07:34:29.012Z,16.90
2017-09-27T07:36:56.670Z,16.80
2017-09-27T07:39:25.010Z,16.70
2017-09-27T07:41:52.501Z,16.60
2017-09-27T07:44:20.069Z,16.70
2017-09-27T07:46:47.643Z,16.70
2017-09-27T07:49:15.943Z,16.80
2017-09-27T07:51:43.450Z,16.80
2017-09-27T07:54:11.063Z,16.90
2017-09-27T07:56:38.591Z,16.90
2017-09-27T07:59:06.140Z,17.00
2017-09-27T08:01:33.645Z,17.10
2017-09-27T08:04:01.172Z,17.10
2017-09-27T08:06:29.458Z,17.10
2017-09-27T08:08:56.982Z,17.20
2017-09-27T08:11:24.482Z,17.10
2017-09-27T08:13:52.081Z,17.00
2017-09-27T08:16:19.881Z,17.00
2017-09-27T08:18:47.534Z,17.00
2017-09-27T08:21:15.122Z,16.90
2017-09-27T08:23:43.396Z,16.70
2017-09-27T08:26:11.817Z,16.60
2017-09-27T08:28:39.424Z,16.60
2017-09-27T08:31:07.793Z,16.70
2017-09-27T08:33:36.091Z,16.60
2017-09-27T08:36:04.477Z,16.50
2017-09-27T08:38:32.109Z,16.50
2017-09-27T08:40:59.883Z,16.50
2017-09-27T08:43:28.302Z,16.30
2017-09-27T08:45:55.991Z,16.30
2017-09-27T08:48:23.588Z,16.10
2017-09-27T08:50:52.851Z,16.00
2017-09-27T08:53:20.384Z,16.00
2017-09-27T08:55:48.066Z,16.00
2017-09-27T08:58:15.757Z,16.00
2017-09-27T09:00:43.324Z,16.00
2017-09-27T09:03:10.836Z,16.10
2017-09-27T09:05:38.410Z,16.30
2017-09-27T09:08:05.865Z,16.50
2017-09-27T09:10:33.461Z,16.90
2017-09-27T09:13:01.858Z,17.20
2017-09-27T09:15:30.290Z,17.30
2017-09-27T09:17:58.016Z,17.30
2017-09-27T09:20:25.589Z,17.20
2017-09-27T09:22:53.188Z,17.10
2017-09-27T09:25:20.765Z,17.10
2017-09-27T09:27:48.340Z,17.20
2017-09-27T09:30:16.801Z,17.20
2017-09-27T09:32:44.445Z,17.20
2017-09-27T09:35:11.959Z,17.50
2017-09-27T09:37:39.619Z,17.70
2017-09-27T09:40:07.160Z,17.70
2017-09-27T09:42:35.610Z,17.80
2017-09-27T09:45:03.178Z,17.80
2017-09-27T09:47:30.663Z,17.90
2017-09-27T09:49:58.947Z,18.10
2017-09-27T09:52:26.449Z,18.10
2017-09-27T09:54:53.969Z,18.10
2017-09-27T09:57:21.492Z,18.20
2017-09-27T09:59:49.075Z,18.20
2017-09-27T10:02:16.662Z,18.30
2017-09-27T10:04:44.132Z,18.30
2017-09-27T10:07:11.675Z,18.30
2017-09-27T10:09:39.368Z,18.30
2017-09-27T10:12:06.966Z,18.50
2017-09-27T10:14:35.433Z,18.70
2017-09-27T10:17:02.990Z,18.70
2017-09-27T10:19:30.483Z,18.90
2017-09-27T10:22:24.193Z,19.10
2017-09-27T10:24:51.823Z,19.30
2017-09-27T10:27:19.417Z,19.30
2017-09-27T10:29:46.920Z,19.50
2017-09-27T10:32:15.178Z,20.00
2017-09-27T10:34:44.602Z,19.80
2017-09-27T10:37:12.093Z,19.80
2017-09-27T10:39:39.652Z,19.70
2017-09-27T10:42:07.195Z,19.70
2017-09-27T10:44:34.699Z,19.80
2017-09-27T10:47:02.191Z,19.90
2017-09-27T10:49:29.673Z,20.00
2017-09-27T10:51:57.135Z,20.10
2017-09-27T10:54:24.696Z,20.10
2017-09-27T10:56:52.231Z,20.20
2017-09-27T10:59:19.749Z,20.20
2017-09-27T11:01:47.230Z,20.30
2017-09-27T11:04:15.510Z,20.50
2017-09-27T11:06:46.102Z,20.50
2017-09-27T11:09:13.621Z,20.40
2017-09-27T11:11:41.173Z,20.30
2017-09-27T11:14:08.750Z,20.20
2017-09-27T11:16:36.323Z,19.80
2017-09-27T11:19:03.838Z,19.60
2017-09-27T11:21:31.352Z,19.60
2017-09-27T11:23:58.872Z,19.60
2017-09-27T11:26:26.389Z,19.90
2017-09-27T11:28:53.949Z,20.10
2017-09-27T11:31:21.425Z,20.30
2017-09-27T11:33:49.724Z,19.60
2017-09-27T11:36:17.277Z,19.60
2017-09-27T11:38:44.756Z,19.20
2017-09-27T11:41:12.256Z,19.00
2017-09-27T11:43:39.817Z,18.90
2017-09-27T11:46:07.306Z,18.90
2017-09-27T11:48:34.931Z,18.90
2017-09-27T11:51:02.449Z,18.90
2017-09-27T11:53:29.924Z,18.90
2017-09-27T11:55:57.525Z,19.00
2017-09-27T11:58:25.845Z,19.10
2017-09-27T12:00:53.405Z,19.10
2017-09-27T12:03:20.904Z,19.10
2017-09-27T12:05:48.423Z,19.10
2017-09-27T12:08:15.986Z,19.10
2017-09-27T12:10:43.554Z,19.20
2017-09-27T12:13:11.066Z,19.40
2017-09-27T12:15:38.688Z,19.60
2017-09-27T12:18:06.247Z,19.60
2017-09-27T12:20:33.978Z,19.80
2017-09-27T12:23:01.532Z,19.90
2017-09-27T12:25:29.043Z,20.00
2017-09-27T12:27:56.515Z,20.00
2017-09-27T12:30:24.810Z,20.40
2017-09-27T12:32:52.390Z,20.40
2017-09-27T12:35:19.879Z,20.50
2017-09-27T12:37:47.385Z,20.60
2017-09-27T12:40:14.880Z,20.60
2017-09-27T12:42:42.383Z,20.60
2017-09-27T12:45:10.639Z,21.30
2017-09-27T12:47:38.130Z,21.20
2017-09-27T12:50:06.351Z,21.10
2017-09-27T12:52:33.837Z,21.10
2017-09-27T12:55:01.359Z,21.00
2017-09-27T12:57:28.842Z,20.90
2017-09-27T12:59:56.317Z,20.90
2017-09-27T13:02:24.692Z,20.50
2017-09-27T13:04:52.188Z,20.50
2017-09-27T13:07:19.685Z,20.30
2017-09-27T13:09:47.159Z,20.20
2017-09-27T13:12:14.653Z,20.20
2017-09-27T13:14:42.126Z,20.10
2017-09-27T13:17:09.661Z,20.00
2017-09-27T13:19:37.942Z,20.10
2017-09-27T13:22:05.416Z,20.10
2017-09-27T13:24:32.924Z,20.10
2017-09-27T13:27:00.420Z,20.10
2017-09-27T13:29:27.935Z,20.30
2017-09-27T13:31:55.458Z,20.40
2017-09-27T13:34:22.940Z,20.50
2017-09-27T13:36:51.234Z,20.70
2017-09-27T13:39:19.514Z,20.50
2017-09-27T13:41:46.983Z,20.50
2017-09-27T13:44:14.529Z,20.30
2017-09-27T13:46:41.997Z,20.20
2017-09-27T13:49:09.543Z,20.30
2017-09-27T13:51:37.020Z,20.40
2017-09-27T13:54:05.268Z,20.60
2017-09-27T13:56:32.751Z,20.50
2017-09-27T13:59:00.263Z,20.60
2017-09-27T14:01:27.726Z,20.70
2017-09-27T14:03:55.230Z,20.80
2017-09-27T14:06:23.467Z,21.10
2017-09-27T14:08:50.954Z,21.10
2017-09-27T14:11:18.459Z,21.40
2017-09-27T14:13:45.959Z,21.60
2017-09-27T14:16:13.433Z,21.50
2017-09-27T14:18:40.975Z,21.40
2017-09-27T14:21:08.450Z,21.40
2017-09-27T14:23:36.700Z,21.40
2017-09-27T14:26:04.171Z,21.30
2017-09-27T14:28:31.626Z,21.20
2017-09-27T14:30:59.137Z,21.20
2017-09-27T14:33:26.618Z,21.20
2017-09-27T14:35:54.102Z,21.20
2017-09-27T14:38:21.625Z,21.30
2017-09-27T14:40:49.117Z,21.40
2017-09-27T14:43:16.632Z,21.40
2017-09-27T14:45:44.164Z,21.00
2017-09-27T14:48:12.449Z,20.80
2017-09-27T14:50:39.951Z,20.80
2017-09-27T14:53:07.447Z,20.70
2017-09-27T14:55:35.709Z,20.70
2017-09-27T14:58:03.281Z,20.70
2017-09-27T15:00:31.639Z,20.40
2017-09-27T15:02:59.348Z,20.30
2017-09-27T15:05:26.842Z,20.30
2017-09-27T15:07:54.368Z,20.30
2017-09-27T15:10:21.929Z,20.30
2017-09-27T15:12:49.599Z,20.10
2017-09-27T15:15:17.248Z,20.00
2017-09-27T15:17:44.764Z,19.70
2017-09-27T15:20:12.296Z,19.40
2017-09-27T15:22:39.825Z,19.20
2017-09-27T15:25:07.445Z,19.10
2017-09-27T15:27:35.074Z,18.90
2017-09-27T15:30:02.595Z,18.80
2017-09-27T15:32:30.195Z,18.70
2017-09-27T15:34:57.671Z,18.70
2017-09-27T15:37:25.339Z,18.60
2017-09-27T15:39:53.005Z,18.60
2017-09-27T15:42:20.611Z,18.60
2017-09-27T15:44:48.169Z,18.60
2017-09-27T15:47:15.775Z,18.70
2017-09-27T15:49:43.295Z,18.80
2017-09-27T15:52:10.802Z,18.90
2017-09-27T15:54:38.312Z,18.90
2017-09-27T15:57:05.871Z,18.90
2017-09-27T15:59:33.517Z,19.00
2017-09-27T16:02:01.122Z,18.90
2017-09-27T16:04:28.705Z,19.10
2017-09-27T16:06:57.510Z,19.10
2017-09-27T16:09:25.852Z,19.10
2017-09-27T16:11:53.389Z,19.10
2017-09-27T16:14:20.890Z,19.10
2017-09-27T16:16:48.395Z,19.00
2017-09-27T16:19:15.914Z,19.00
2017-09-27T16:21:43.451Z,19.00
2017-09-27T16:24:10.954Z,18.90
2017-09-27T16:26:38.433Z,18.90
2017-09-27T16:29:05.995Z,18.80
2017-09-27T16:31:33.476Z,18.70
2017-09-27T16:34:06.787Z,18.70
2017-09-27T16:36:34.355Z,18.60
2017-09-27T16:39:02.018Z,18.50
2017-09-27T16:41:29.576Z,18.40
2017-09-27T16:43:57.069Z,18.40
2017-09-27T16:46:24.630Z,18.30
2017-09-27T16:48:52.155Z,18.20
2017-09-27T16:51:20.430Z,18.10
2017-09-27T16:53:48.805Z,18.00
2017-09-27T16:56:16.354Z,18.00
2017-09-27T16:58:44.070Z,17.90
2017-09-27T17:01:11.696Z,17.80
2017-09-27T17:03:39.309Z,17.80
2017-09-27T17:06:06.880Z,17.70
2017-09-27T17:08:34.657Z,17.70
2017-09-27T17:11:02.245Z,17.60
2017-09-27T17:13:30.782Z,17.40
2017-09-27T17:15:58.524Z,17.40
2017-09-27T17:18:26.235Z,17.30
2017-09-27T17:20:53.846Z,17.30
2017-09-27T17:23:22.396Z,17.20
2017-09-27T17:25:50.262Z,17.10
2017-09-27T17:28:18.252Z,17.10
2017-09-27T17:30:47.676Z,16.90
2017-09-27T17:33:15.823Z,16.90
2017-09-27T17:35:43.708Z,16.80
2017-09-27T17:38:11.636Z,16.70
2017-09-27T17:40:40.606Z,16.60
2017-09-27T17:43:10.318Z,16.50
2017-09-27T17:45:39.236Z,16.40
2017-09-27T17:48:08.009Z,16.40
2017-09-27T17:50:36.318Z,16.40
2017-09-27T17:53:06.336Z,16.40
2017-09-27T17:55:37.887Z,16.30
2017-09-27T17:58:06.329Z,16.20
2017-09-27T18:03:24.268Z,16.10
2017-09-27T18:12:35.011Z,15.90
2017-09-27T18:15:24.258Z,15.90
2017-09-27T18:17:52.697Z,15.80
2017-09-27T18:20:23.649Z,15.70
2017-09-27T18:23:02.292Z,15.60
2017-09-27T18:28:28.167Z,15.40
2017-09-27T18:31:00.820Z,15.20
2017-09-27T18:33:42.083Z,15.20
2017-09-27T18:36:12.015Z,15.10
2017-09-27T18:38:46.811Z,15.10
2017-09-27T18:41:17.520Z,15.00
2017-09-27T18:43:58.626Z,14.80
2017-09-27T18:46:26.662Z,14.70
2017-09-27T18:49:06.455Z,14.60
2017-09-27T18:51:34.544Z,14.60
2017-09-27T18:54:02.945Z,14.50
2017-09-27T18:56:34.324Z,14.40
2017-09-27T18:59:15.213Z,14.40
2017-09-27T19:01:43.615Z,14.30
2017-09-27T19:04:12.527Z,14.20
2017-09-27T19:06:40.936Z,14.00
2017-09-27T19:09:20.811Z,13.90
2017-09-27T19:11:48.371Z,13.90
2017-09-27T19:14:16.524Z,13.80
2017-09-27T19:16:44.140Z,13.70
2017-09-27T19:19:12.209Z,13.60
2017-09-27T19:22:00.470Z,13.60
2017-09-27T19:24:36.760Z,13.50
2017-09-27T19:33:09.032Z,13.30
2017-09-27T21:03:59.651Z,11.80
2017-09-27T21:06:27.106Z,11.80
2017-09-27T21:08:54.619Z,11.80
2017-09-27T21:11:22.085Z,11.70
2017-09-27T21:13:50.309Z,11.70
2017-09-27T21:16:17.851Z,11.70
2017-09-27T21:18:45.309Z,11.70
2017-09-27T21:21:12.774Z,11.60
2017-09-27T21:23:40.261Z,11.60
2017-09-27T21:26:07.709Z,11.60
2017-09-27T21:28:35.179Z,11.60
2017-09-27T21:31:02.642Z,11.60
2017-09-27T21:33:30.194Z,11.60
2017-09-27T21:35:57.672Z,11.60
2017-09-27T21:38:26.737Z,11.50
2017-09-27T21:40:54.221Z,11.50
2017-09-27T21:43:21.675Z,11.50
2017-09-27T21:45:49.132Z,11.50
2017-09-27T21:48:16.594Z,11.40
2017-09-27T21:50:44.093Z,11.40
2017-09-27T21:53:11.538Z,11.30
2017-09-27T21:55:39.043Z,11.30
2017-09-27T21:58:06.498Z,11.30
2017-09-27T22:00:33.953Z,11.30
2017-09-27T22:03:01.417Z,11.30
2017-09-27T22:05:28.865Z,11.30
2017-09-27T22:07:56.426Z,11.20
2017-09-27T22:10:23.887Z,11.20
2017-09-27T22:12:51.547Z,11.10
2017-09-27T22:15:19.107Z,11.10
2017-09-27T22:17:46.683Z,11.10
2017-09-27T22:20:14.156Z,11.10
2017-09-27T22:22:42.386Z,11.10
2017-09-27T22:25:09.928Z,11.10
2017-09-27T22:27:37.370Z,11.10
2017-09-27T22:30:04.845Z,11.00
2017-09-27T22:32:32.301Z,11.00
2017-09-27T22:34:59.760Z,10.90
2017-09-27T22:37:27.251Z,10.90
2017-09-27T22:39:54.805Z,10.80
2017-09-27T22:42:22.275Z,10.80
2017-09-27T22:44:49.724Z,10.90
2017-09-27T22:47:17.181Z,10.90
2017-09-27T22:49:44.753Z,10.80
2017-09-27T22:52:12.208Z,10.90
2017-09-27T22:54:39.823Z,10.80
2017-09-27T22:57:07.334Z,10.80
2017-09-27T22:59:34.822Z,10.90
2017-09-27T23:02:02.255Z,10.80
2017-09-27T23:04:30.481Z,10.70
2017-09-27T23:06:57.932Z,10.70
2017-09-27T23:09:25.417Z,10.70
2017-09-27T23:11:52.878Z,10.60
2017-09-27T23:14:20.333Z,10.60
2017-09-27T23:16:47.790Z,10.60
2017-09-27T23:19:15.260Z,10.50
2017-09-27T23:21:42.732Z,10.50
2017-09-27T23:24:10.950Z,10.40
2017-09-27T23:26:38.413Z,10.40
2017-09-27T23:29:05.864Z,10.40
2017-09-27T23:31:33.328Z,10.40
2017-09-27T23:34:00.813Z,10.30
2017-09-27T23:36:28.375Z,10.20
2017-09-27T23:38:55.836Z,10.20
2017-09-27T23:41:23.298Z,10.10
2017-09-27T23:43:50.754Z,10.10
2017-09-27T23:46:18.305Z,10.10
2017-09-27T23:48:45.758Z,10.00
2017-09-27T23:51:13.313Z,10.00
2017-09-27T23:53:40.766Z,10.00
2017-09-27T23:56:08.225Z,10.00
2017-09-27T23:58:35.679Z,10.00
